createdAt,value
2022-07-30T06:50:28.827Z,52.68
2022-07-30T06:51:30.217Z,52.38
2022-07-30T06:52:31.612Z,52.39
2022-07-30T06:53:33.046Z,51.79
2022-07-30T06:54:41.086Z,51.25
2022-07-30T06:55:42.569Z,51.36
2022-07-30T06:56:44.101Z,51.96
2022-07-30T06:57:45.525Z,51.55
2022-07-30T06:58:47.117Z,51.30
2022-07-30T07:21:56.290Z,45.87
2022-07-30T07:22:57.728Z,45.23
2022-07-30T07:24:00.501Z,45.65
2022-07-30T07:25:02.021Z,45.33
2022-07-30T07:26:03.692Z,45.33
2022-07-30T07:27:05.057Z,44.17
2022-07-30T07:28:16.837Z,43.75
2022-07-30T07:29:18.311Z,43.29
2022-07-30T07:30:19.741Z,43.54
2022-07-30T07:32:02.676Z,43.79
2022-07-30T07:32:43.017Z,42.82
2022-07-30T07:33:45.963Z,42.97
2022-07-30T07:34:47.390Z,43.24
2022-07-30T07:35:50.272Z,42.86
2022-07-30T07:36:52.003Z,42.48
2022-07-30T07:37:53.505Z,42.06
2022-07-30T07:38:55.000Z,41.60
2022-07-30T07:39:56.552Z,41.88
2022-07-30T07:40:58.169Z,42.33
2022-07-30T07:41:59.668Z,42.45
2022-07-30T07:43:01.263Z,42.42
2022-07-30T07:44:03.999Z,41.98
2022-07-30T07:45:05.942Z,41.65
2022-07-30T08:09:43.798Z,39.40
2022-07-30T08:10:47.095Z,39.05
2022-07-30T08:11:48.513Z,38.53
2022-07-30T08:12:49.990Z,37.97
2022-07-30T08:13:52.829Z,38.42
2022-07-30T08:14:54.527Z,38.26
2022-07-30T08:15:56.166Z,38.22
2022-07-30T08:16:57.652Z,38.72
2022-07-30T08:17:59.098Z,38.17
2022-07-30T08:19:00.570Z,37.66
2022-07-30T08:20:02.779Z,37.46
2022-07-30T08:21:04.703Z,37.91
2022-07-30T08:22:06.306Z,37.82
2022-07-30T08:23:08.265Z,37.27
2022-07-30T08:24:10.093Z,37.66
2022-07-30T08:25:11.517Z,37.81
2022-07-30T08:26:23.696Z,37.07
2022-07-30T08:27:25.692Z,38.73
2022-07-30T08:28:36.213Z,38.89
2022-07-30T08:29:38.060Z,37.43
2022-07-30T08:30:39.572Z,38.13
2022-07-30T08:31:41.044Z,38.33
2022-07-30T08:32:42.441Z,36.98
2022-07-30T08:33:43.813Z,37.14
2022-07-30T08:34:45.203Z,36.94
2022-07-30T08:35:49.155Z,37.38
2022-07-30T08:37:00.685Z,36.75
2022-07-30T08:54:27.175Z,36.43
2022-07-30T08:55:28.769Z,36.33
2022-07-30T08:56:33.114Z,36.04
2022-07-30T08:57:35.644Z,35.95
2022-07-30T08:58:37.282Z,35.78
2022-07-30T08:59:59.446Z,36.06
2022-07-30T09:01:02.395Z,36.52
2022-07-30T09:02:06.664Z,36.75
2022-07-30T09:03:11.043Z,36.92
2022-07-30T09:04:12.522Z,37.17
2022-07-30T09:05:14.064Z,37.03
2022-07-30T09:06:15.805Z,36.73
2022-07-30T09:07:17.256Z,37.31
2022-07-30T09:08:18.915Z,37.05
2022-07-30T09:09:21.378Z,36.09
2022-07-30T09:10:24.249Z,35.35
2022-07-30T09:11:25.704Z,35.02
2022-07-30T09:12:38.461Z,34.29
2022-07-30T09:13:48.364Z,33.68
2022-07-30T09:15:12.636Z,33.86
2022-07-30T09:16:23.261Z,33.67
2022-07-30T09:17:24.817Z,33.95
2022-07-30T09:18:27.297Z,34.28
2022-07-30T09:19:28.677Z,34.37
2022-07-30T09:20:34.089Z,33.88
2022-07-30T09:21:35.824Z,34.59
2022-07-30T09:22:48.499Z,34.09
2022-07-30T09:24:01.411Z,34.17
2022-07-30T09:25:02.874Z,33.89
2022-07-30T09:26:04.277Z,33.93
2022-07-30T09:27:06.511Z,33.63
2022-07-30T09:28:15.864Z,34.64
2022-07-30T09:29:19.856Z,34.22
2022-07-30T09:30:21.361Z,33.82
2022-07-30T09:31:23.754Z,33.44
2022-07-30T09:32:25.252Z,33.87
2022-07-30T09:33:34.349Z,33.32
2022-07-30T09:34:40.034Z,33.70
2022-07-30T09:35:42.721Z,32.87
2022-07-30T09:36:47.620Z,33.03
2022-07-30T09:38:02.965Z,33.14
2022-07-30T09:39:07.407Z,33.58
2022-07-30T09:40:17.442Z,33.60
2022-07-30T09:41:38.815Z,33.64
2022-07-30T09:42:41.522Z,32.90
2022-07-30T09:43:48.504Z,32.90
2022-07-30T09:44:50.073Z,32.41
2022-07-30T09:45:57.149Z,31.72
2022-07-30T09:46:59.321Z,31.73
2022-07-30T09:48:01.436Z,31.92
2022-07-30T09:49:17.722Z,31.65
2022-07-30T09:50:30.468Z,31.59
2022-07-30T10:11:05.180Z,31.40
2022-07-30T10:12:13.487Z,32.36
2022-07-30T10:13:20.500Z,32.24
2022-07-30T10:14:32.094Z,32.84
2022-07-30T10:15:35.788Z,33.31
2022-07-30T10:16:37.757Z,32.51
2022-07-30T10:17:41.702Z,32.24
2022-07-30T10:18:43.678Z,32.74
2022-07-30T10:19:47.158Z,31.91
2022-07-30T10:20:50.661Z,31.69
2022-07-30T10:21:56.717Z,31.16
2022-07-30T10:22:58.973Z,30.46
2022-07-30T10:24:00.657Z,31.15
2022-07-30T10:25:03.087Z,31.00
2022-07-30T10:26:08.355Z,31.44
2022-07-30T10:27:10.330Z,31.07
2022-07-30T10:28:15.470Z,30.39
2022-07-30T10:29:19.755Z,30.77
2022-07-30T10:30:27.806Z,31.15
2022-07-30T10:31:48.466Z,31.33
2022-07-30T10:32:52.539Z,30.91
2022-07-30T10:33:54.733Z,29.84
2022-07-30T10:34:56.265Z,30.27
2022-07-30T10:35:58.364Z,29.47
2022-07-30T10:37:06.813Z,29.25
2022-07-30T10:38:14.737Z,29.93
2022-07-30T10:39:20.429Z,29.47
2022-07-30T10:40:31.024Z,29.42
2022-07-30T10:41:44.478Z,29.15
2022-07-30T10:43:23.157Z,30.54
2022-07-30T10:44:35.960Z,30.28
2022-07-30T10:46:02.845Z,30.34
2022-07-30T10:47:10.629Z,29.81
2022-07-30T10:48:13.029Z,30.27
2022-07-30T10:49:18.773Z,29.92
2022-07-30T10:50:26.744Z,29.64
2022-07-30T10:51:48.990Z,29.77
2022-07-30T10:52:55.970Z,30.93
2022-07-30T10:53:57.512Z,31.27
2022-07-30T10:54:58.902Z,31.07
2022-07-30T10:56:25.451Z,29.96
2022-07-30T10:57:31.902Z,30.24
2022-07-30T10:59:04.846Z,29.35
2022-07-30T11:00:09.889Z,28.98
2022-07-30T11:01:17.868Z,30.04
2022-07-30T11:02:20.270Z,29.94
2022-07-30T11:03:40.249Z,29.33
2022-07-30T11:04:46.668Z,29.87
2022-07-30T11:05:49.668Z,29.99
2022-07-30T11:07:23.522Z,30.55
2022-07-30T11:08:31.893Z,30.87
2022-07-30T11:09:41.828Z,29.52
2022-07-30T11:10:44.839Z,28.92
2022-07-30T11:12:02.255Z,28.59
2022-07-30T11:13:09.242Z,28.73
2022-07-30T11:14:12.538Z,28.93
2022-07-30T11:15:18.424Z,29.00
2022-07-30T11:16:23.249Z,28.83
2022-07-30T11:17:25.022Z,29.12
2022-07-30T11:18:28.727Z,29.04
2022-07-30T11:19:54.976Z,29.26
2022-07-30T11:21:21.412Z,29.33
2022-07-30T11:22:31.620Z,28.81
2022-07-30T11:23:39.629Z,28.38
2022-07-30T11:24:45.750Z,29.06
2022-07-30T11:25:51.880Z,28.53
2022-07-30T11:26:56.239Z,28.51
2022-07-30T11:27:57.886Z,28.39
2022-07-30T11:28:59.454Z,28.21
2022-07-30T11:30:02.889Z,28.05
2022-07-30T11:31:37.190Z,27.35
2022-07-30T11:32:51.660Z,27.85
2022-07-30T11:33:53.465Z,28.06
2022-07-30T11:35:17.435Z,28.69
2022-07-30T11:36:19.339Z,28.97
2022-07-30T11:37:32.206Z,29.04
2022-07-30T11:38:52.122Z,28.63
2022-07-30T11:39:53.441Z,29.01
2022-07-30T11:40:55.078Z,29.71
2022-07-30T11:42:28.898Z,29.56
2022-07-30T11:43:35.639Z,29.32
2022-07-30T11:44:38.381Z,28.76
2022-07-30T11:45:40.197Z,28.12
2022-07-30T11:46:48.918Z,28.00
2022-07-30T11:47:52.789Z,27.02
2022-07-30T11:49:08.833Z,27.29
2022-07-30T11:50:18.851Z,27.11
2022-07-30T11:51:21.029Z,27.11
2022-07-30T11:52:23.276Z,27.06
2022-07-30T11:53:25.106Z,26.87
2022-07-30T11:54:26.906Z,26.94
2022-07-30T11:55:39.917Z,27.68
2022-07-30T11:57:03.867Z,27.29
2022-07-30T11:58:09.209Z,27.36
2022-07-30T11:59:10.585Z,27.91
2022-07-30T12:00:12.333Z,27.00
2022-07-30T12:01:15.864Z,26.40
2022-07-30T12:02:17.465Z,26.14
2022-07-30T12:03:23.763Z,26.92
2022-07-30T12:04:25.381Z,26.56
2022-07-30T12:05:27.675Z,26.42
2022-07-30T12:06:31.869Z,26.12
2022-07-30T12:07:33.382Z,26.54
2022-07-30T12:08:42.973Z,26.99
2022-07-30T12:09:44.413Z,27.34
2022-07-30T12:10:59.651Z,27.26
2022-07-30T12:12:02.294Z,26.82
2022-07-30T12:13:15.103Z,26.55
2022-07-30T12:14:16.572Z,27.01
2022-07-30T12:15:32.698Z,28.05
2022-07-30T12:16:34.633Z,28.33
2022-07-30T12:17:45.818Z,28.31
2022-07-30T12:18:48.230Z,28.17
2022-07-30T12:19:49.708Z,27.14
2022-07-30T12:20:59.494Z,26.96
2022-07-30T12:22:01.074Z,27.27
2022-07-30T12:23:03.220Z,27.50
2022-07-30T12:24:13.530Z,27.04
2022-07-30T12:25:15.494Z,26.63
2022-07-30T12:26:28.809Z,27.06
2022-07-30T12:27:30.541Z,27.15
2022-07-30T12:28:34.721Z,27.84
2022-07-30T12:29:36.723Z,28.44
2022-07-30T12:30:41.444Z,28.46
2022-07-30T12:31:43.011Z,28.52
2022-07-30T12:32:45.997Z,28.21
2022-07-30T12:33:47.543Z,28.19
2022-07-30T12:34:55.816Z,27.71
2022-07-30T12:35:59.788Z,27.47
2022-07-30T12:37:10.560Z,27.78
2022-07-30T12:38:12.835Z,27.86
2022-07-30T12:39:40.443Z,26.48
2022-07-30T12:40:50.806Z,28.58
2022-07-30T12:41:56.051Z,28.79
2022-07-30T12:42:57.791Z,29.57
2022-07-30T12:43:59.508Z,29.41
2022-07-30T12:45:01.064Z,29.76
2022-07-30T12:46:02.504Z,29.95
2022-07-30T12:47:06.055Z,29.64
2022-07-30T12:48:11.313Z,30.07
2022-07-30T12:49:22.148Z,29.52
2022-07-30T12:50:25.735Z,29.46
2022-07-30T12:51:32.518Z,28.80
2022-07-30T12:52:37.633Z,28.35
2022-07-30T12:53:39.144Z,28.54
2022-07-30T12:54:40.599Z,28.11
2022-07-30T12:55:41.993Z,27.42
2022-07-30T12:57:03.327Z,27.78
2022-07-30T12:58:08.829Z,26.95
2022-07-30T12:59:21.412Z,26.99
2022-07-30T13:00:24.532Z,27.88
2022-07-30T13:01:43.803Z,27.40
2022-07-30T13:02:45.488Z,27.06
2022-07-30T13:03:47.020Z,26.50
2022-07-30T13:05:03.162Z,26.24
2022-07-30T13:06:23.533Z,25.77
2022-07-30T13:07:29.000Z,25.72
2022-07-30T13:08:49.903Z,26.42
2022-07-30T13:10:10.319Z,27.57
2022-07-30T13:11:12.228Z,27.57
2022-07-30T13:12:14.953Z,27.38
2022-07-30T13:13:16.382Z,26.79
2022-07-30T13:14:18.094Z,26.56
2022-07-30T13:15:21.305Z,26.79
2022-07-30T13:16:23.105Z,26.93
2022-07-30T13:17:24.472Z,27.49
2022-07-30T13:18:25.906Z,27.37
2022-07-30T13:19:28.070Z,28.76
2022-07-30T13:20:29.458Z,29.43
2022-07-30T13:21:31.494Z,29.80
2022-07-30T13:22:32.868Z,30.31
2022-07-30T13:23:34.524Z,29.83
2022-07-30T13:24:36.137Z,30.30
2022-07-30T13:25:38.546Z,30.45
2022-07-30T13:26:40.492Z,30.71
2022-07-30T13:27:41.966Z,30.33
2022-07-30T13:28:43.739Z,29.30
2022-07-30T13:29:45.363Z,29.87
2022-07-30T13:30:47.382Z,30.29
2022-07-30T13:31:48.804Z,29.83
2022-07-30T13:32:50.197Z,28.65
2022-07-30T13:33:51.844Z,28.46
2022-07-30T13:34:53.233Z,28.52
2022-07-30T13:35:54.704Z,28.26
2022-07-30T13:36:56.161Z,27.98
2022-07-30T13:37:57.595Z,27.34
2022-07-30T13:38:58.985Z,26.69
2022-07-30T13:40:00.384Z,26.32
2022-07-30T13:41:04.446Z,26.38
2022-07-30T13:42:05.946Z,26.28
2022-07-30T13:43:08.279Z,25.65
2022-07-30T13:44:09.904Z,25.50
2022-07-30T13:45:11.382Z,25.19
2022-07-30T13:46:13.231Z,24.77
2022-07-30T13:47:14.614Z,24.75
2022-07-30T13:48:16.186Z,24.78
2022-07-30T13:49:17.831Z,24.94
2022-07-30T13:50:19.352Z,24.59
2022-07-30T13:51:20.813Z,24.26
2022-07-30T13:52:22.188Z,24.88
2022-07-30T13:53:23.665Z,25.70
2022-07-30T13:54:25.566Z,25.87
2022-07-30T13:55:27.040Z,25.47
2022-07-30T13:56:28.450Z,25.34
2022-07-30T13:57:30.330Z,24.70
2022-07-30T13:58:36.066Z,25.94
2022-07-30T13:59:37.748Z,26.80
2022-07-30T14:00:40.267Z,26.74
2022-07-30T14:01:41.771Z,27.60
2022-07-30T14:02:43.302Z,27.88
2022-07-30T14:03:49.348Z,27.74
2022-07-30T14:04:52.000Z,27.38
2022-07-30T14:05:53.468Z,27.77
2022-07-30T14:06:55.006Z,28.35
2022-07-30T14:07:57.096Z,27.90
2022-07-30T14:08:58.823Z,28.00
2022-07-30T14:35:17.407Z,30.50
2022-07-30T14:36:20.066Z,30.00
2022-07-30T14:37:21.505Z,30.01
2022-07-30T14:38:22.966Z,29.79
2022-07-30T14:39:27.581Z,29.58
2022-07-30T14:40:29.322Z,29.36
2022-07-30T14:41:31.730Z,29.74
2022-07-30T14:42:33.204Z,29.80
2022-07-30T14:43:34.697Z,30.22
2022-07-30T14:44:36.188Z,30.65
2022-07-30T14:45:37.632Z,30.83
2022-07-30T14:46:51.525Z,30.78
2022-07-30T14:47:54.171Z,31.12
2022-07-30T14:48:55.619Z,30.81
2022-07-30T14:49:57.050Z,30.50
2022-07-30T14:51:15.918Z,30.03
2022-07-30T14:52:19.242Z,30.16
2022-07-30T14:53:22.484Z,29.43
2022-07-30T14:54:24.219Z,28.77
2022-07-30T14:55:25.658Z,29.16
2022-07-30T14:56:27.100Z,29.72
2022-07-30T14:57:28.496Z,29.50
2022-07-30T14:58:30.153Z,29.88
2022-07-30T14:59:31.586Z,30.46
2022-07-30T15:00:35.570Z,29.95
2022-07-30T15:01:50.519Z,30.09
2022-07-30T15:02:52.020Z,30.58
2022-07-30T15:03:53.382Z,30.91
2022-07-30T15:04:54.785Z,30.94
2022-07-30T15:05:56.271Z,31.24
2022-07-30T15:06:58.437Z,31.05
2022-07-30T15:08:00.486Z,31.20
2022-07-30T15:09:03.242Z,31.78
2022-07-30T15:10:07.237Z,31.25
2022-07-30T15:11:09.056Z,30.46
2022-07-30T15:12:11.280Z,29.40
2022-07-30T15:13:12.737Z,28.94
2022-07-30T15:14:15.929Z,28.46
2022-07-30T15:15:21.337Z,28.12
2022-07-30T15:16:25.332Z,28.32
2022-07-30T15:17:26.761Z,28.20
2022-07-30T15:18:28.853Z,28.11
2022-07-30T15:19:31.842Z,27.46
2022-07-30T15:20:36.216Z,28.08
2022-07-30T15:21:37.589Z,27.62
2022-07-30T15:22:39.073Z,28.02
2022-07-30T15:23:40.507Z,28.50
2022-07-30T15:24:44.937Z,28.22
2022-07-30T15:25:48.823Z,27.17
2022-07-30T15:26:50.286Z,27.49
2022-07-30T15:27:51.998Z,27.85
2022-07-30T15:28:55.648Z,28.65
2022-07-30T15:29:57.182Z,28.85
2022-07-30T15:30:59.053Z,29.43
2022-07-30T15:32:01.337Z,29.81
2022-07-30T15:33:03.149Z,30.42
2022-07-30T15:34:04.864Z,30.29
2022-07-30T15:35:10.589Z,30.18
2022-07-30T15:36:15.010Z,30.44
2022-07-30T15:37:16.518Z,30.39
2022-07-30T15:38:17.902Z,30.21
2022-07-30T15:39:19.331Z,30.42
2022-07-30T15:40:20.849Z,29.58
2022-07-30T15:41:22.343Z,28.83
2022-07-30T15:42:23.800Z,28.25
2022-07-30T15:43:25.181Z,28.73
2022-07-30T15:44:26.669Z,28.60
2022-07-30T15:45:28.134Z,29.30
2022-07-30T15:46:29.846Z,28.98
2022-07-30T15:47:31.343Z,29.31
2022-07-30T15:48:32.793Z,29.75
2022-07-30T15:49:34.699Z,29.68
2022-07-30T15:50:37.213Z,30.16
2022-07-30T15:51:43.784Z,30.42
2022-07-30T15:52:45.315Z,30.71
2022-07-30T15:53:46.724Z,30.85
2022-07-30T15:54:48.124Z,31.32
2022-07-30T15:55:49.851Z,31.31
2022-07-30T15:56:53.770Z,31.65
2022-07-30T15:57:56.738Z,31.69
2022-07-30T15:58:58.876Z,31.25
2022-07-30T16:00:00.509Z,30.77
2022-07-30T16:01:03.669Z,30.78
2022-07-30T16:02:05.785Z,30.83
2022-07-30T16:03:07.862Z,31.47
2022-07-30T16:04:09.479Z,31.57
2022-07-30T16:05:21.184Z,31.44
2022-07-30T16:06:22.533Z,30.72
2022-07-30T16:07:23.937Z,29.67
2022-07-30T16:08:25.705Z,28.99
2022-07-30T16:09:27.506Z,28.93
2022-07-30T16:10:34.126Z,28.35
2022-07-30T16:11:35.931Z,28.21
2022-07-30T16:12:37.989Z,28.24
2022-07-30T16:13:39.539Z,27.68
2022-07-30T16:14:41.026Z,27.55
2022-07-30T16:15:42.471Z,27.45
2022-07-30T16:16:44.000Z,27.39
2022-07-30T16:17:45.360Z,27.84
2022-07-30T16:18:46.878Z,27.16
2022-07-30T16:19:50.041Z,27.77
2022-07-30T16:20:51.524Z,27.88
2022-07-30T16:21:52.941Z,27.75
2022-07-30T16:22:54.424Z,27.71
2022-07-30T16:23:56.599Z,27.90
2022-07-30T16:24:57.966Z,27.55
2022-07-30T16:25:59.429Z,27.44
2022-07-30T16:27:00.816Z,27.33
2022-07-30T16:28:02.728Z,27.08
2022-07-30T16:29:04.817Z,27.10
2022-07-30T16:30:06.867Z,27.18
2022-07-30T16:31:09.029Z,27.34
2022-07-30T16:32:10.568Z,27.55
2022-07-30T16:33:12.161Z,26.84
2022-07-30T16:34:13.604Z,27.66
2022-07-30T16:35:15.014Z,27.48
2022-07-30T16:36:16.932Z,28.20
2022-07-30T16:37:18.402Z,27.82
2022-07-30T16:38:20.280Z,28.81
2022-07-30T16:39:21.777Z,28.59
2022-07-30T16:40:23.656Z,28.63
2022-07-30T16:41:26.605Z,28.83
2022-07-30T16:42:28.037Z,28.87
2022-07-30T16:43:31.830Z,28.39
2022-07-30T16:44:34.328Z,28.54
2022-07-30T16:45:36.514Z,28.34
2022-07-30T16:46:38.805Z,28.13
2022-07-30T16:47:40.304Z,27.82
2022-07-30T16:48:41.692Z,28.17
2022-07-30T16:49:43.222Z,28.41
2022-07-30T16:50:45.413Z,28.24
2022-07-30T16:51:46.906Z,28.54
2022-07-30T16:52:48.474Z,28.65
2022-07-30T16:53:49.997Z,28.59
2022-07-30T16:54:51.399Z,28.44
2022-07-30T16:55:52.884Z,27.92
2022-07-30T16:56:54.293Z,28.70
2022-07-30T16:57:55.702Z,28.66
2022-07-30T16:58:57.125Z,28.91
2022-07-30T16:59:58.585Z,28.86
2022-07-30T17:01:04.736Z,29.01
2022-07-30T17:02:06.589Z,29.18
2022-07-30T17:03:08.208Z,29.12
2022-07-30T17:04:09.964Z,28.90
2022-07-30T17:05:13.859Z,28.94
2022-07-30T17:06:15.503Z,29.32
2022-07-30T17:07:17.223Z,29.32
2022-07-30T17:08:19.337Z,29.50
2022-07-30T17:09:26.729Z,29.41
2022-07-30T17:10:37.625Z,29.39
2022-07-30T17:11:47.414Z,29.89
2022-07-30T17:12:54.269Z,29.96
2022-07-30T17:13:59.162Z,29.74
2022-07-30T17:15:00.697Z,29.99
2022-07-30T17:16:02.137Z,30.27
2022-07-30T17:17:03.801Z,30.19
2022-07-30T17:18:05.246Z,29.88
2022-07-30T17:19:09.335Z,30.10
2022-07-30T17:20:13.176Z,29.92
2022-07-30T17:21:14.797Z,29.95
2022-07-30T17:22:16.179Z,29.87
2022-07-30T17:23:17.632Z,29.89
2022-07-30T17:24:19.149Z,30.30
2022-07-30T17:25:21.325Z,30.27
2022-07-30T17:26:22.761Z,30.82
2022-07-30T17:27:26.421Z,30.68
2022-07-30T17:28:27.866Z,30.80
2022-07-30T17:29:29.693Z,30.71
2022-07-30T17:30:31.298Z,30.84
2022-07-30T17:31:32.710Z,30.59
2022-07-30T17:32:34.129Z,30.37
2022-07-30T17:33:35.540Z,30.77
2022-07-30T17:34:36.919Z,30.76
2022-07-30T17:35:38.401Z,30.86
2022-07-30T17:36:49.324Z,30.72
2022-07-30T17:37:54.407Z,30.68
2022-07-30T17:38:55.801Z,30.53
2022-07-30T17:40:18.681Z,30.83
